Kingsville, MO (64061)

4:35 AM CST on January 28, 2015 (GMT -0600)
Lone Jack rural residence | Change Station
CLOSE
Current Station
Personal Weather Station
Location: Lone Jack, MO
Elevation: 1020 ft
Nearby Weather Stations

Elev 1020 ft 38.85 °N, 94.18 °W | Updated 10 seconds ago

Clear
Clear
40.8 °F
Feels Like 41 °F
N
1.3
Wind Variable Wind from SW
Gusts 2.5 mph

Today
High -- | Low -- °F
--% Chance of Precip.
Yesterday
High -- | Low -- °F
Precip. -- in
7:26 AM 5:33 PM
Waxing Gibbous, 63% visible
Pressure 30.00 in
Visibility 10.0 miles
Clouds Clear
Windchill 41 °F
Dew Point 31 °F
Humidity 67%
Rainfall 0.00 in
Snow Depth Not available.
UV 0 out of 12
Pollen .50 out of 12
Air Quality Not available.
Flu Activity Not available.
METAR KLXT 280953Z AUTO 15007KT 10SM CLR 06/M02 A2999 RMK AO2 SLP157 T00561017

More Conditions Fewer Conditions

Pressure 30.00 in
Visibility 10.0 miles
Clouds Clear
Windchill 41 °F
Dew Point 31 °F
Humidity 67%
Rainfall 0.00 in
Snow Depth Not available.
UV 0 out of 12
Pollen .50 out of 12
Air Quality Not available.
Flu Activity Not available.
METAR KLXT 280953Z AUTO 15007KT 10SM CLR 06/M02 A2999 RMK AO2 SLP157 T00561017

More Conditions Fewer Conditions

10-Day Weather Forecast

Almanac

Astronomy

Jan. 28, 2015 Rise Set
Actual Time
Civil Twilight
Nautical Twilight
Astronomical Twilight
Moon
Length of Visible Light
Length of Day
Tomorrow will be .
, % of the Moon is Illuminated

Today's Extremes

State Highs State Lows

Community

WunderPhotos

Upload Photos

1,791,121 photos uploaded!

WunderBlogs® & News

Nearby

Air Quality

  Air Quality AQ Index Pollutant
Not available.

Snow Depth

Station Depth Elevation

Earthquake Activity

City Distance Mag. Time & Date
Minimum magnitude displayed is 2.5.

Coastal Water Temperatures

Place Temperature

Nearby Weather Stations